sensor_id;sensor_type;location;lat;lon;timestamp;P1;durP1;ratioP1;P2;durP2;ratioP2
54641;SDS011;40536;53.194;5.728;2022-12-05T00:00:45;77.22;;;71.45;;
54641;SDS011;40536;53.194;5.728;2022-12-05T00:03:26;96.43;;;89.57;;
54641;SDS011;40536;53.194;5.728;2022-12-05T00:05:57;138.15;;;129.55;;
54641;SDS011;40536;53.194;5.728;2022-12-05T00:08:35;110.80;;;103.15;;
54641;SDS011;40536;53.194;5.728;2022-12-05T00:11:06;103.28;;;96.47;;
54641;SDS011;40536;53.194;5.728;2022-12-05T00:13:45;146.23;;;136.98;;
54641;SDS011;40536;53.194;5.728;2022-12-05T00:16:30;169.45;;;159.40;;
54641;SDS011;40536;53.194;5.728;2022-12-05T00:19:02;148.85;;;139.75;;
54641;SDS011;40536;53.194;5.728;2022-12-05T00:21:30;144.65;;;135.93;;
54641;SDS011;40536;53.194;5.728;2022-12-05T00:24:10;118.93;;;111.30;;
54641;SDS011;40536;53.194;5.728;2022-12-05T00:26:40;142.35;;;134.02;;
54641;SDS011;40536;53.194;5.728;2022-12-05T00:29:06;165.70;;;156.02;;
54641;SDS011;40536;53.194;5.728;2022-12-05T00:31:54;129.55;;;121.88;;
54641;SDS011;40536;53.194;5.728;2022-12-05T00:34:25;119.60;;;112.35;;
54641;SDS011;40536;53.194;5.728;2022-12-05T00:37:00;117.97;;;110.82;;
54641;SDS011;40536;53.194;5.728;2022-12-05T00:39:29;149.55;;;140.82;;
54641;SDS011;40536;53.194;5.728;2022-12-05T00:42:04;101.38;;;95.13;;
54641;SDS011;40536;53.194;5.728;2022-12-05T00:44:37;162.95;;;153.98;;
54641;SDS011;40536;53.194;5.728;2022-12-05T00:47:06;134.35;;;126.82;;
54641;SDS011;40536;53.194;5.728;2022-12-05T00:49:50;126.85;;;119.22;;
54641;SDS011;40536;53.194;5.728;2022-12-05T00:52:21;157.98;;;149.18;;
54641;SDS011;40536;53.194;5.728;2022-12-05T00:54:59;116.00;;;109.07;;
54641;SDS011;40536;53.194;5.728;2022-12-05T00:57:33;227.93;;;215.63;;
54641;SDS011;40536;53.194;5.728;2022-12-05T01:00:21;100.00;;;93.45;;
54641;SDS011;40536;53.194;5.728;2022-12-05T01:02:57;110.32;;;103.43;;
54641;SDS011;40536;53.194;5.728;2022-12-05T01:05:32;83.32;;;77.68;;
54641;SDS011;40536;53.194;5.728;2022-12-05T01:08:08;101.93;;;95.35;;
54641;SDS011;40536;53.194;5.728;2022-12-05T01:10:50;77.43;;;71.75;;
54641;SDS011;40536;53.194;5.728;2022-12-05T01:13:29;71.88;;;66.38;;
54641;SDS011;40536;53.194;5.728;2022-12-05T01:16:08;101.03;;;94.55;;
54641;SDS011;40536;53.194;5.728;2022-12-05T01:19:01;122.00;;;114.10;;
54641;SDS011;40536;53.194;5.728;2022-12-05T01:21:39;89.95;;;83.47;;
54641;SDS011;40536;53.194;5.728;2022-12-05T01:24:11;94.78;;;88.53;;
54641;SDS011;40536;53.194;5.728;2022-12-05T01:26:39;104.28;;;97.72;;
54641;SDS011;40536;53.194;5.728;2022-12-05T01:29:21;84.55;;;78.65;;
54641;SDS011;40536;53.194;5.728;2022-12-05T01:31:56;111.32;;;104.07;;
54641;SDS011;40536;53.194;5.728;2022-12-05T01:34:35;193.00;;;182.05;;
54641;SDS011;40536;53.194;5.728;2022-12-05T01:37:10;168.07;;;158.35;;
54641;SDS011;40536;53.194;5.728;2022-12-05T01:39:58;118.65;;;111.43;;
54641;SDS011;40536;53.194;5.728;2022-12-05T01:42:36;189.95;;;179.70;;
54641;SDS011;40536;53.194;5.728;2022-12-05T01:45:36;141.50;;;133.35;;
54641;SDS011;40536;53.194;5.728;2022-12-05T01:51:19;189.30;;;178.70;;
54641;SDS011;40536;53.194;5.728;2022-12-05T01:53:49;196.93;;;185.77;;
54641;SDS011;40536;53.194;5.728;2022-12-05T01:56:52;170.90;;;161.13;;
54641;SDS011;40536;53.194;5.728;2022-12-05T02:02:21;205.98;;;194.52;;
54641;SDS011;40536;53.194;5.728;2022-12-05T02:08:14;270.17;;;255.50;;
54641;SDS011;40536;53.194;5.728;2022-12-05T02:10:56;263.10;;;249.27;;
54641;SDS011;40536;53.194;5.728;2022-12-05T02:40:50;228.82;;;217.65;;
54641;SDS011;40536;53.194;5.728;2022-12-05T02:43:50;177.10;;;168.40;;
54641;SDS011;40536;53.194;5.728;2022-12-05T02:46:53;179.82;;;170.88;;
54641;SDS011;40536;53.194;5.728;2022-12-05T02:49:45;200.60;;;191.05;;
54641;SDS011;40536;53.194;5.728;2022-12-05T02:52:57;186.98;;;177.88;;
54641;SDS011;40536;53.194;5.728;2022-12-05T02:58:54;229.27;;;217.65;;
54641;SDS011;40536;53.194;5.728;2022-12-05T03:02:08;250.48;;;237.75;;
54641;SDS011;40536;53.194;5.728;2022-12-05T03:05:43;158.98;;;151.45;;
54641;SDS011;40536;53.194;5.728;2022-12-05T03:31:59;132.45;;;125.85;;
54641;SDS011;40536;53.194;5.728;2022-12-05T03:35:29;109.13;;;103.70;;
54641;SDS011;40536;53.194;5.728;2022-12-05T03:55:35;112.43;;;106.20;;
54641;SDS011;40536;53.194;5.728;2022-12-05T03:58:48;100.40;;;94.93;;
54641;SDS011;40536;53.194;5.728;2022-12-05T04:02:02;106.90;;;101.28;;
54641;SDS011;40536;53.194;5.728;2022-12-05T04:05:11;144.90;;;137.60;;
54641;SDS011;40536;53.194;5.728;2022-12-05T04:14:31;115.05;;;109.15;;
54641;SDS011;40536;53.194;5.728;2022-12-05T04:21:01;153.05;;;145.50;;
54641;SDS011;40536;53.194;5.728;2022-12-05T04:30:29;180.18;;;171.27;;
54641;SDS011;40536;53.194;5.728;2022-12-05T04:40:46;187.10;;;178.07;;
54641;SDS011;40536;53.194;5.728;2022-12-05T04:43:45;160.35;;;152.48;;
54641;SDS011;40536;53.194;5.728;2022-12-05T04:50:31;206.90;;;196.88;;
54641;SDS011;40536;53.194;5.728;2022-12-05T05:00:26;198.43;;;188.35;;
54641;SDS011;40536;53.194;5.728;2022-12-05T05:07:05;238.18;;;225.85;;
54641;SDS011;40536;53.194;5.728;2022-12-05T05:24:31;267.42;;;253.93;;
54641;SDS011;40536;53.194;5.728;2022-12-05T05:37:54;248.20;;;236.07;;
54641;SDS011;40536;53.194;5.728;2022-12-05T06:01:51;236.25;;;224.70;;
54641;SDS011;40536;53.194;5.728;2022-12-05T06:21:45;244.45;;;231.82;;
54641;SDS011;40536;53.194;5.728;2022-12-05T06:31:42;312.55;;;296.38;;
54641;SDS011;40536;53.194;5.728;2022-12-05T06:34:30;235.20;;;223.70;;
54641;SDS011;40536;53.194;5.728;2022-12-05T06:37:08;223.77;;;212.68;;
54641;SDS011;40536;53.194;5.728;2022-12-05T06:39:36;247.48;;;235.32;;
54641;SDS011;40536;53.194;5.728;2022-12-05T06:42:02;251.00;;;238.75;;
54641;SDS011;40536;53.194;5.728;2022-12-05T06:48:06;206.82;;;196.65;;
54641;SDS011;40536;53.194;5.728;2022-12-05T06:53:55;282.65;;;268.08;;
54641;SDS011;40536;53.194;5.728;2022-12-05T06:57:25;200.18;;;190.57;;
54641;SDS011;40536;53.194;5.728;2022-12-05T07:00:10;199.13;;;189.40;;
54641;SDS011;40536;53.194;5.728;2022-12-05T07:02:55;262.65;;;249.63;;
54641;SDS011;40536;53.194;5.728;2022-12-05T07:09:41;330.95;;;313.20;;
54641;SDS011;40536;53.194;5.728;2022-12-05T07:12:10;276.30;;;262.63;;
54641;SDS011;40536;53.194;5.728;2022-12-05T07:14:37;269.23;;;255.48;;
54641;SDS011;40536;53.194;5.728;2022-12-05T07:17:03;307.48;;;292.40;;
54641;SDS011;40536;53.194;5.728;2022-12-05T07:19:38;333.60;;;316.33;;
54641;SDS011;40536;53.194;5.728;2022-12-05T15:42:51;462.38;;;432.73;;
54641;SDS011;40536;53.194;5.728;2022-12-05T15:48:14;446.40;;;416.92;;
54641;SDS011;40536;53.194;5.728;2022-12-05T15:50:52;454.45;;;421.38;;
54641;SDS011;40536;53.194;5.728;2022-12-05T16:02:28;408.17;;;384.92;;
54641;SDS011;40536;53.194;5.728;2022-12-05T16:05:15;450.52;;;420.70;;
54641;SDS011;40536;53.194;5.728;2022-12-05T16:07:54;471.08;;;438.52;;
54641;SDS011;40536;53.194;5.728;2022-12-05T16:10:29;436.15;;;407.65;;
54641;SDS011;40536;53.194;5.728;2022-12-05T16:13:04;395.00;;;372.10;;
54641;SDS011;40536;53.194;5.728;2022-12-05T16:18:53;419.52;;;392.95;;
54641;SDS011;40536;53.194;5.728;2022-12-05T16:21:33;372.58;;;350.42;;
54641;SDS011;40536;53.194;5.728;2022-12-05T16:24:30;386.88;;;364.83;;
54641;SDS011;40536;53.194;5.728;2022-12-05T16:27:12;429.35;;;401.45;;
54641;SDS011;40536;53.194;5.728;2022-12-05T16:32:39;440.90;;;412.90;;
54641;SDS011;40536;53.194;5.728;2022-12-05T16:35:28;440.38;;;412.33;;
54641;SDS011;40536;53.194;5.728;2022-12-05T16:40:57;354.67;;;334.75;;
54641;SDS011;40536;53.194;5.728;2022-12-05T16:43:39;355.92;;;336.48;;
54641;SDS011;40536;53.194;5.728;2022-12-05T16:48:41;392.05;;;368.60;;
54641;SDS011;40536;53.194;5.728;2022-12-05T16:53:52;375.50;;;353.77;;
54641;SDS011;40536;53.194;5.728;2022-12-05T16:56:29;400.77;;;377.50;;
54641;SDS011;40536;53.194;5.728;2022-12-05T16:59:05;397.67;;;375.77;;
54641;SDS011;40536;53.194;5.728;2022-12-05T17:01:46;426.30;;;400.50;;
54641;SDS011;40536;53.194;5.728;2022-12-05T17:04:11;411.55;;;386.40;;
54641;SDS011;40536;53.194;5.728;2022-12-05T17:06:37;445.33;;;415.65;;
54641;SDS011;40536;53.194;5.728;2022-12-05T17:09:05;429.95;;;404.35;;
54641;SDS011;40536;53.194;5.728;2022-12-05T17:11:34;385.77;;;363.25;;
54641;SDS011;40536;53.194;5.728;2022-12-05T17:14:05;410.08;;;385.80;;
54641;SDS011;40536;53.194;5.728;2022-12-05T17:16:35;372.98;;;351.85;;
54641;SDS011;40536;53.194;5.728;2022-12-05T17:21:48;318.05;;;301.20;;
54641;SDS011;40536;53.194;5.728;2022-12-05T17:24:18;341.38;;;323.08;;
54641;SDS011;40536;53.194;5.728;2022-12-05T17:26:56;307.42;;;291.48;;
54641;SDS011;40536;53.194;5.728;2022-12-05T17:29:24;304.17;;;288.27;;
54641;SDS011;40536;53.194;5.728;2022-12-05T17:31:57;315.15;;;298.95;;
54641;SDS011;40536;53.194;5.728;2022-12-05T17:34:43;283.15;;;269.20;;
54641;SDS011;40536;53.194;5.728;2022-12-05T17:37:14;285.05;;;270.13;;
54641;SDS011;40536;53.194;5.728;2022-12-05T17:42:44;270.55;;;257.70;;
54641;SDS011;40536;53.194;5.728;2022-12-05T17:45:13;210.40;;;199.25;;
54641;SDS011;40536;53.194;5.728;2022-12-05T17:47:50;224.57;;;213.95;;
54641;SDS011;40536;53.194;5.728;2022-12-05T17:50:18;248.10;;;236.00;;
54641;SDS011;40536;53.194;5.728;2022-12-05T17:52:56;314.17;;;298.35;;
54641;SDS011;40536;53.194;5.728;2022-12-05T17:55:47;299.48;;;285.10;;
54641;SDS011;40536;53.194;5.728;2022-12-05T17:58:25;325.50;;;308.77;;
54641;SDS011;40536;53.194;5.728;2022-12-05T18:01:09;297.55;;;283.27;;
54641;SDS011;40536;53.194;5.728;2022-12-05T18:04:05;283.52;;;269.77;;
54641;SDS011;40536;53.194;5.728;2022-12-05T18:06:58;213.77;;;203.75;;
54641;SDS011;40536;53.194;5.728;2022-12-05T18:09:28;163.70;;;155.65;;
54641;SDS011;40536;53.194;5.728;2022-12-05T18:12:19;223.55;;;213.32;;
54641;SDS011;40536;53.194;5.728;2022-12-05T18:14:55;291.15;;;276.20;;
54641;SDS011;40536;53.194;5.728;2022-12-05T18:17:47;259.67;;;246.95;;
54641;SDS011;40536;53.194;5.728;2022-12-05T18:20:49;289.63;;;275.00;;
54641;SDS011;40536;53.194;5.728;2022-12-05T18:23:19;294.42;;;280.45;;
54641;SDS011;40536;53.194;5.728;2022-12-05T18:26:13;302.73;;;288.08;;
54641;SDS011;40536;53.194;5.728;2022-12-05T18:31:42;210.70;;;200.70;;
54641;SDS011;40536;53.194;5.728;2022-12-05T18:37:22;250.75;;;238.35;;
54641;SDS011;40536;53.194;5.728;2022-12-05T18:39:59;266.60;;;254.43;;
54641;SDS011;40536;53.194;5.728;2022-12-05T18:42:42;137.32;;;130.80;;
54641;SDS011;40536;53.194;5.728;2022-12-05T18:45:39;190.80;;;181.68;;
54641;SDS011;40536;53.194;5.728;2022-12-05T18:48:23;237.73;;;226.98;;
54641;SDS011;40536;53.194;5.728;2022-12-05T18:54:25;153.10;;;145.70;;
54641;SDS011;40536;53.194;5.728;2022-12-05T18:57:00;102.75;;;97.47;;
54641;SDS011;40536;53.194;5.728;2022-12-05T18:59:35;144.60;;;137.73;;
54641;SDS011;40536;53.194;5.728;2022-12-05T19:02:03;93.85;;;89.20;;
54641;SDS011;40536;53.194;5.728;2022-12-05T19:04:39;106.15;;;100.97;;
54641;SDS011;40536;53.194;5.728;2022-12-05T19:07:09;105.55;;;100.35;;
54641;SDS011;40536;53.194;5.728;2022-12-05T19:09:39;99.75;;;94.88;;
54641;SDS011;40536;53.194;5.728;2022-12-05T19:12:08;73.55;;;69.30;;
54641;SDS011;40536;53.194;5.728;2022-12-05T19:17:07;98.97;;;93.85;;
54641;SDS011;40536;53.194;5.728;2022-12-05T19:19:43;92.72;;;88.10;;
54641;SDS011;40536;53.194;5.728;2022-12-05T19:22:11;114.07;;;108.15;;
54641;SDS011;40536;53.194;5.728;2022-12-05T19:25:09;54.15;;;50.60;;
54641;SDS011;40536;53.194;5.728;2022-12-05T19:27:36;66.13;;;62.60;;
54641;SDS011;40536;53.194;5.728;2022-12-05T19:45:02;56.50;;;53.28;;
54641;SDS011;40536;53.194;5.728;2022-12-05T20:43:30;117.95;;;112.32;;
54641;SDS011;40536;53.194;5.728;2022-12-05T20:46:02;138.27;;;131.65;;
